Celeryville, Ohio
Current Conditions -  °F | °C
As of 2:52 AM on Friday 31 Oct 2014 (Local Time) from KMFD Reporting Station
Overcast Overcast  
Wind Chill: 40°   Ceiling: 4200
Heat Index: 43°   Visibility: 10mi
Dew Point: 35°   Wind: 5mph
Humidity: 74%   Direction: 220°SW
Pressure: 30"   Gusts: NA
Location:  41.0768°N, 82.7214°W
Report Text: KMFD 310652Z AUTO 22004KT 10SM OVC042 06/02 A3000 RMK AO2 SLP163 T00610017
Loading
Personal Weather Stations






























Interactive Weather Map
Tropical Storm Tracking
New forecast layout! Learn more

10-Day Weather Forecast

Advertisements
Track Severe Weather on mobile